Time;durP1;ratioP1;P1;durP2;ratioP2;P2;SDS_P1;SDS_P2;PMS_P1;PMS_P2;Temp;Humidity;BMP_temperature;BMP_pressure;BME280_temperature;BME280_humidity;BME280_pressure;Samples;Min_cycle;Max_cycle;Signal;HPM_P1;HPM_P2
2022/07/29 00:00:00;;;;;;;1.10;0.90;;;;;;;18.52;79.78;94023.34;5052523;28;20691;-67
2022/07/29 00:02:45;;;;;;;2.40;1.00;;;;;;;18.39;81.37;94021.38;5053741;28;20675;-67
2022/07/29 00:05:29;;;;;;;1.70;1.20;;;;;;;18.33;81.14;94018.28;5049826;28;20206;-60
2022/07/29 00:08:15;;;;;;;1.00;0.90;;;;;;;18.41;82.41;94001.59;5050082;28;20257;-67
2022/07/29 00:10:59;;;;;;;1.50;1.30;;;;;;;18.60;81.02;93984.00;5055745;28;20200;-67
2022/07/29 00:13:43;;;;;;;1.17;1.00;;;;;;;18.50;82.63;93986.38;5055697;28;20256;-67
2022/07/29 00:16:27;;;;;;;1.23;1.10;;;;;;;18.32;80.24;93977.81;5047685;28;20244;-67
2022/07/29 00:19:11;;;;;;;1.07;1.00;;;;;;;18.42;79.99;93964.06;5055714;28;20690;-66
2022/07/29 00:21:55;;;;;;;1.73;1.40;;;;;;;18.19;83.17;93970.88;5054469;28;20729;-67
2022/07/29 00:24:39;;;;;;;2.30;1.20;;;;;;;18.32;83.22;93960.81;5048028;28;20225;-67
2022/07/29 00:27:23;;;;;;;1.40;1.10;;;;;;;18.35;83.42;93955.94;5041903;28;20352;-67
2022/07/29 00:30:07;;;;;;;1.63;1.03;;;;;;;18.27;84.03;93958.44;5052672;28;20229;-66
2022/07/29 00:32:51;;;;;;;1.07;0.90;;;;;;;18.26;85.01;93954.13;5046149;28;20717;-68
2022/07/29 00:35:44;;;;;;;2.13;1.20;;;;;;;18.25;85.48;93955.50;5049680;28;20670;-67
2022/07/29 00:38:28;;;;;;;0.70;0.70;;;;;;;18.29;84.47;93961.34;5052552;28;20658;-67
2022/07/29 00:41:12;;;;;;;1.00;0.90;;;;;;;18.22;84.82;93959.63;5054026;28;20208;-67
2022/07/29 00:43:57;;;;;;;1.17;1.13;;;;;;;18.23;85.84;93952.56;5050901;28;20709;-67
2022/07/29 00:46:41;;;;;;;1.00;1.00;;;;;;;18.04;84.86;93948.94;5052923;28;20216;-67
2022/07/29 00:49:25;;;;;;;1.43;1.20;;;;;;;18.26;83.52;93956.97;5053024;28;20221;-67
2022/07/29 00:52:10;;;;;;;1.27;1.07;;;;;;;18.24;84.33;93954.03;5043772;28;20205;-67
2022/07/29 00:54:56;;;;;;;1.07;0.97;;;;;;;18.15;83.77;93953.69;5045421;28;20197;-68
2022/07/29 00:57:41;;;;;;;2.63;1.27;;;;;;;18.24;82.11;93937.75;5053084;28;20229;-64
2022/07/29 01:00:27;;;;;;;1.27;1.17;;;;;;;18.41;79.91;93944.84;5043846;28;20259;-67
2022/07/29 01:06:20;;;;;;;1.30;1.20;;;;;;;18.03;84.53;93935.41;5076315;28;20212;-83
2022/07/29 01:09:06;;;;;;;3.57;1.40;;;;;;;17.70;86.60;93933.25;5087362;28;20242;-82
2022/07/29 01:11:50;;;;;;;1.80;1.23;;;;;;;17.63;87.39;93932.25;5062132;28;20567;-82
2022/07/29 01:14:35;;;;;;;4.47;1.30;;;;;;;17.63;86.63;93920.19;5088743;28;20700;-83
2022/07/29 01:17:33;;;;;;;1.93;1.20;;;;;;;17.58;87.16;93927.75;5076481;28;20200;-84
2022/07/29 01:20:30;;;;;;;2.17;1.10;;;;;;;17.70;85.49;93934.00;5062118;28;20335;-83
2022/07/29 01:23:40;;;;;;;1.20;1.10;;;;;;;17.63;85.75;93934.34;5075969;28;20699;-83
2022/07/29 01:26:41;;;;;;;1.77;1.07;;;;;;;17.39;87.11;93929.00;5082691;28;20243;-84
2022/07/29 01:29:25;;;;;;;1.10;1.00;;;;;;;17.57;85.03;93931.22;5074730;28;20259;-84
2022/07/29 01:32:13;;;;;;;0.73;0.73;;;;;;;17.25;85.10;93919.84;5076058;28;20238;-83
2022/07/29 01:35:21;;;;;;;1.07;1.00;;;;;;;17.03;87.04;93910.34;5070230;28;20576;-90
2022/07/29 01:38:13;;;;;;;0.90;0.80;;;;;;;17.28;85.90;93900.88;5071095;28;20200;-84
2022/07/29 01:41:08;;;;;;;2.17;0.80;;;;;;;17.13;85.75;93896.63;5061685;28;20200;-83
2022/07/29 01:44:01;;;;;;;2.70;1.30;;;;;;;17.10;85.90;93885.84;5056697;28;20723;-85
2022/07/29 01:46:52;;;;;;;1.20;1.10;;;;;;;17.35;84.64;93882.75;5091726;28;20687;-83
2022/07/29 01:49:42;;;;;;;1.27;1.10;;;;;;;17.51;82.32;93879.94;5072765;28;20471;-83
2022/07/29 01:52:35;;;;;;;1.30;1.20;;;;;;;16.97;84.56;93868.28;5074882;28;20258;-85
2022/07/29 01:55:24;;;;;;;1.40;1.30;;;;;;;17.14;84.72;93874.72;5091648;28;20613;-84
2022/07/29 01:58:12;;;;;;;1.93;1.23;;;;;;;16.70;86.86;93873.38;5091846;28;20268;-84
2022/07/29 02:00:59;;;;;;;3.23;1.10;;;;;;;16.76;86.49;93871.56;5072436;28;20246;-86
2022/07/29 02:03:46;;;;;;;3.43;1.30;;;;;;;16.96;85.35;93866.84;5076195;28;20648;-85
2022/07/29 02:06:33;;;;;;;1.27;1.00;;;;;;;16.93;85.63;93865.28;5072302;28;20235;-85
2022/07/29 02:09:19;;;;;;;1.57;1.20;;;;;;;16.93;84.99;93867.38;5076184;28;20219;-85
2022/07/29 02:12:05;;;;;;;1.30;1.20;;;;;;;16.60;86.04;93855.91;5071612;28;20425;-85
2022/07/29 02:14:53;;;;;;;0.73;0.73;;;;;;;16.81;84.17;93850.56;5070194;28;20208;-85
2022/07/29 02:17:46;;;;;;;1.33;1.00;;;;;;;17.07;82.84;93853.91;5076724;28;20208;-85
2022/07/29 02:20:32;;;;;;;2.67;1.33;;;;;;;17.20;81.64;93853.09;5075997;28;20303;-85
2022/07/29 02:23:22;;;;;;;4.47;0.80;;;;;;;16.97;80.54;93859.81;5070003;28;20208;-85
2022/07/29 02:26:08;;;;;;;1.20;1.10;;;;;;;17.15;81.18;93854.28;5059805;28;20204;-85
2022/07/29 02:28:56;;;;;;;1.23;1.13;;;;;;;16.79;81.22;93846.91;5075951;28;20220;-85
2022/07/29 02:31:44;;;;;;;1.53;0.97;;;;;;;17.11;80.03;93859.00;5069415;28;20228;-85
2022/07/29 02:34:29;;;;;;;2.50;0.83;;;;;;;16.99;80.93;93859.16;5076200;28;20232;-85
2022/07/29 02:37:16;;;;;;;3.43;1.00;;;;;;;16.30;83.90;93849.47;5066736;28;20281;-85
2022/07/29 02:40:01;;;;;;;1.00;0.90;;;;;;;16.13;87.06;93860.00;5066830;28;20691;-85
2022/07/29 02:42:46;;;;;;;1.40;0.90;;;;;;;16.00;87.22;93846.63;5091090;28;20249;-84
2022/07/29 02:45:32;;;;;;;1.57;1.03;;;;;;;16.03;86.77;93850.28;5083033;28;20200;-85
2022/07/29 02:48:18;;;;;;;3.97;0.90;;;;;;;15.89;88.37;93846.75;5075122;28;20215;-85
2022/07/29 02:51:18;;;;;;;1.83;1.20;;;;;;;16.00;88.42;93851.53;5061833;28;20716;-85
2022/07/29 02:54:07;;;;;;;1.53;1.33;;;;;;;15.91;88.58;93849.69;5084227;28;20251;-85
2022/07/29 02:56:55;;;;;;;1.23;1.10;;;;;;;16.10;88.12;93854.88;5066236;28;20200;-84
2022/07/29 02:59:42;;;;;;;1.20;1.10;;;;;;;15.82;88.93;93847.78;5088776;28;20200;-84
2022/07/29 03:02:27;;;;;;;2.73;1.13;;;;;;;15.68;90.64;93840.06;5073048;28;20219;-84
2022/07/29 03:05:18;;;;;;;1.50;1.23;;;;;;;15.71;90.36;93833.16;5090372;28;20287;-84
2022/07/29 03:08:04;;;;;;;3.20;1.17;;;;;;;15.74;91.65;93837.53;5088978;28;20263;-84
2022/07/29 03:10:49;;;;;;;2.77;1.03;;;;;;;15.59;92.32;93832.56;5070947;28;20208;-84
2022/07/29 03:13:35;;;;;;;3.13;1.20;;;;;;;15.60;91.68;93834.03;5060525;28;20215;-84
2022/07/29 03:16:21;;;;;;;4.40;1.30;;;;;;;15.27;93.14;93828.03;5089897;28;20278;-84
2022/07/29 03:19:06;;;;;;;1.20;1.10;;;;;;;15.28;93.58;93837.97;5075094;28;20200;-84
2022/07/29 03:21:51;;;;;;;1.40;1.27;;;;;;;15.46;93.09;93838.91;5057030;28;20246;-84
2022/07/29 03:24:36;;;;;;;1.30;1.00;;;;;;;15.41;93.38;93839.31;5085077;28;20744;-84
2022/07/29 03:27:21;;;;;;;1.63;1.13;;;;;;;15.94;90.54;93837.84;5052908;28;20215;-84
2022/07/29 03:30:07;;;;;;;4.80;1.20;;;;;;;15.91;88.41;93846.84;5072388;28;20224;-84
2022/07/29 03:32:51;;;;;;;1.33;1.20;;;;;;;15.91;89.31;93841.22;5075605;28;20226;-83
2022/07/29 03:35:36;;;;;;;5.57;1.60;;;;;;;15.87;89.29;93838.16;5062977;28;20204;-83
2022/07/29 03:38:24;;;;;;;9.07;1.23;;;;;;;16.23;86.61;93837.16;5059491;28;20680;-83
2022/07/29 03:41:11;;;;;;;2.43;1.20;;;;;;;16.46;84.41;93842.53;5066090;28;20233;-83
2022/07/29 03:43:58;;;;;;;1.47;1.37;;;;;;;16.50;83.49;93834.22;5088172;28;20234;-84
2022/07/29 03:46:44;;;;;;;2.70;1.47;;;;;;;16.67;83.09;93835.00;5055969;28;20358;-83
2022/07/29 03:49:29;;;;;;;1.30;1.20;;;;;;;16.68;82.41;93830.81;5071878;28;20228;-83
2022/07/29 03:52:14;;;;;;;1.67;1.10;;;;;;;16.88;81.29;93837.44;5061126;28;20338;-83
2022/07/29 03:54:59;;;;;;;1.93;1.10;;;;;;;16.76;82.64;93837.59;5067836;28;20247;-83
2022/07/29 03:57:46;;;;;;;3.53;1.20;;;;;;;16.79;83.09;93846.91;5073856;28;20269;-83
2022/07/29 04:00:31;;;;;;;1.40;1.30;;;;;;;16.70;82.62;93839.41;5073128;28;20218;-83
2022/07/29 04:03:15;;;;;;;1.10;1.10;;;;;;;16.83;82.55;93847.09;5064284;28;20224;-83
2022/07/29 04:06:08;;;;;;;2.03;1.60;;;;;;;16.87;81.18;93841.63;5056125;28;20215;-83
2022/07/29 04:08:52;;;;;;;1.27;1.17;;;;;;;16.46;83.30;93839.69;5060862;28;20291;-84
2022/07/29 04:11:40;;;;;;;2.00;1.10;;;;;;;16.69;83.90;93838.69;5065024;28;20263;-84
2022/07/29 04:14:26;;;;;;;1.30;1.20;;;;;;;17.05;80.78;93850.97;5060207;28;20203;-84
2022/07/29 04:17:10;;;;;;;1.33;1.10;;;;;;;17.23;79.58;93853.88;5060492;28;20216;-84
2022/07/29 04:19:54;;;;;;;1.43;1.10;;;;;;;17.50;77.91;93844.47;5077444;28;20219;-84
2022/07/29 04:22:37;;;;;;;3.60;1.10;;;;;;;18.25;74.71;93842.06;5086301;28;20204;-84
2022/07/29 04:25:21;;;;;;;1.10;1.00;;;;;;;18.91;71.20;93847.59;5089433;28;20203;-84
2022/07/29 04:28:06;;;;;;;1.83;1.00;;;;;;;19.48;68.47;93855.47;5062318;28;20290;-84
2022/07/29 04:30:51;;;;;;;1.10;1.00;;;;;;;19.76;66.17;93856.50;5068452;28;20346;-83
2022/07/29 04:33:35;;;;;;;1.10;0.90;;;;;;;19.86;65.93;93852.56;5089513;28;20208;-83
2022/07/29 04:36:19;;;;;;;1.50;1.10;;;;;;;18.87;68.94;93858.81;5062271;28;20216;-84
2022/07/29 04:39:04;;;;;;;1.97;1.00;;;;;;;17.82;74.27;93854.44;5091934;28;20204;-84
2022/07/29 04:41:49;;;;;;;1.17;1.07;;;;;;;18.19;73.16;93868.06;5068524;28;20718;-84
2022/07/29 04:44:33;;;;;;;1.10;0.90;;;;;;;18.33;72.35;93870.75;5061195;28;20199;-84
2022/07/29 04:47:17;;;;;;;0.93;0.93;;;;;;;18.34;72.98;93872.94;5073749;28;20715;-83
2022/07/29 04:50:02;;;;;;;2.30;1.20;;;;;;;18.29;73.01;93864.91;5075033;28;20251;-84
2022/07/29 04:52:46;;;;;;;2.17;1.00;;;;;;;18.51;73.95;93877.19;5068820;28;20215;-84
2022/07/29 04:55:30;;;;;;;1.23;1.00;;;;;;;18.99;71.65;93878.41;5084738;28;20203;-84
2022/07/29 04:58:15;;;;;;;0.80;0.80;;;;;;;18.85;73.56;93875.75;5050047;28;20200;-84
2022/07/29 05:01:00;;;;;;;2.13;1.13;;;;;;;19.12;71.38;93882.47;5074905;28;20717;-84
2022/07/29 05:03:45;;;;;;;1.23;1.13;;;;;;;19.74;68.61;93887.69;5076066;28;20224;-85
2022/07/29 05:06:29;;;;;;;0.97;0.93;;;;;;;20.07;68.53;93889.56;5084565;28;20325;-85
2022/07/29 05:09:13;;;;;;;2.27;0.87;;;;;;;19.99;68.41;93885.75;5090806;28;20246;-85
2022/07/29 05:11:57;;;;;;;1.07;0.97;;;;;;;20.14;67.82;93887.69;5059694;28;20235;-86
2022/07/29 05:14:41;;;;;;;0.83;0.83;;;;;;;20.05;67.96;93889.53;5056562;28;20251;-85
2022/07/29 05:17:25;;;;;;;1.07;0.90;;;;;;;20.31;67.94;93895.38;5074825;28;20203;-86
2022/07/29 05:20:09;;;;;;;1.40;1.30;;;;;;;20.34;67.92;93888.41;5057646;28;20230;-85
2022/07/29 05:23:00;;;;;;;5.07;1.10;;;;;;;20.16;68.61;93893.44;5042897;28;20225;-86
2022/07/29 05:25:46;;;;;;;6.15;1.00;;;;;;;20.14;68.67;93893.38;5076288;28;20200;-85
2022/07/29 05:28:34;;;;;;;1.43;1.30;;;;;;;19.74;70.45;93887.69;5088094;28;20220;-87
2022/07/29 05:31:18;;;;;;;1.67;1.30;;;;;;;19.62;70.90;93897.91;5091448;28;20633;-85
2022/07/29 05:34:02;;;;;;;6.40;1.45;;;;;;;20.22;68.16;93893.66;5065221;28;20283;-86
2022/07/29 05:36:47;;;;;;;3.63;1.20;;;;;;;20.32;68.12;93891.19;5076853;28;20265;-86
2022/07/29 05:39:31;;;;;;;4.20;1.20;;;;;;;20.65;66.04;93895.13;5075359;28;20250;-85
2022/07/29 05:42:15;;;;;;;1.00;0.90;;;;;;;20.56;65.43;93903.41;5064546;28;20345;-85
2022/07/29 05:45:00;;;;;;;2.03;1.30;;;;;;;21.32;63.42;93904.47;5076530;28;20706;-85
2022/07/29 05:47:45;;;;;;;1.88;1.20;;;;;;;21.21;61.83;93908.38;5093784;28;20660;-84
2022/07/29 05:50:30;;;;;;;1.05;0.95;;;;;;;21.29;61.58;93905.78;5094303;28;20203;-84
2022/07/29 05:53:15;;;;;;;2.05;1.05;;;;;;;20.98;62.19;93900.50;5075973;28;20199;-85
2022/07/29 05:56:07;;;;;;;2.15;1.10;;;;;;;20.88;61.64;93898.03;5084009;28;20361;-87
2022/07/29 05:58:53;;;;;;;1.42;0.80;;;;;;;20.89;60.65;93907.31;5092907;28;20193;-87
2022/07/29 06:01:39;;;;;;;2.22;0.90;;;;;;;20.90;61.03;93903.09;5089204;28;20231;-85
2022/07/29 06:04:24;;;;;;;0.85;0.80;;;;;;;20.91;60.07;93907.41;5074798;28;20243;-85
2022/07/29 06:07:08;;;;;;;1.02;0.90;;;;;;;20.70;62.58;93905.25;5054147;28;20243;-90
2022/07/29 06:09:53;;;;;;;2.40;1.05;;;;;;;20.97;61.61;93910.44;5058541;28;20196;-89
2022/07/29 06:12:37;;;;;;;0.80;0.80;;;;;;;21.09;61.04;93918.66;5063715;28;20323;-94
2022/07/29 06:15:22;;;;;;;0.90;0.90;;;;;;;21.11;61.31;93916.56;5070328;28;20703;-86
2022/07/29 06:18:08;;;;;;;0.90;0.90;;;;;;;21.10;61.72;93918.00;5091284;28;20254;-86
2022/07/29 06:20:53;;;;;;;1.17;1.08;;;;;;;21.76;59.95;93921.44;5071126;28;20196;-85
2022/07/29 06:23:39;;;;;;;0.80;0.80;;;;;;;21.75;59.65;93931.41;5061855;28;20208;-84
2022/07/29 06:26:23;;;;;;;3.92;0.88;;;;;;;21.60;59.95;93932.38;5074191;28;20270;-88
2022/07/29 06:29:08;;;;;;;2.28;1.08;;;;;;;22.08;58.78;93930.97;5059788;28;20251;-84
2022/07/29 06:31:52;;;;;;;1.20;1.10;;;;;;;21.95;57.22;93928.41;5075964;28;20208;-88
2022/07/29 06:34:36;;;;;;;2.65;0.90;;;;;;;22.35;57.02;93931.69;5083175;28;20238;-84
2022/07/29 06:37:21;;;;;;;0.80;0.80;;;;;;;22.31;56.41;93931.59;5072806;28;20200;-85
2022/07/29 06:43:09;;;;;;;1.40;0.90;;;;;;;22.64;55.69;93939.66;5073362;28;20203;-88
2022/07/29 06:45:54;;;;;;;2.50;1.08;;;;;;;23.53;53.14;93933.31;5073177;28;20553;-86
2022/07/29 06:48:39;;;;;;;2.88;0.80;;;;;;;23.61;52.75;93936.34;5050147;28;20214;-85
2022/07/29 06:51:24;;;;;;;1.17;0.70;;;;;;;23.50;51.90;93946.13;5071908;28;20216;-85
2022/07/29 06:54:08;;;;;;;2.72;0.85;;;;;;;23.67;51.06;93942.22;5070395;28;20235;-88
2022/07/29 06:56:52;;;;;;;0.80;0.80;;;;;;;23.40;53.91;93958.00;5067539;28;20296;-85
2022/07/29 06:59:36;;;;;;;1.80;0.77;;;;;;;23.51;53.05;93950.44;5041276;28;20342;-85
2022/07/29 07:02:20;;;;;;;0.80;0.80;;;;;;;23.69;51.72;93948.00;5069732;28;20227;-86
2022/07/29 07:05:05;;;;;;;0.93;0.80;;;;;;;23.19;52.32;93943.91;5052001;28;20217;-84
2022/07/29 07:07:49;;;;;;;6.75;1.30;;;;;;;23.69;51.81;93953.72;5073682;28;20303;-86
2022/07/29 07:10:33;;;;;;;1.52;1.10;;;;;;;24.14;52.71;93954.66;5067871;28;20228;-84
2022/07/29 07:13:19;;;;;;;1.25;0.90;;;;;;;24.05;51.05;93948.06;5090180;28;20755;-88
2022/07/29 07:16:04;;;;;;;1.48;0.90;;;;;;;24.87;47.39;93953.28;5055265;28;20200;-85
2022/07/29 07:18:49;;;;;;;0.90;0.90;;;;;;;24.73;47.03;93958.75;5058077;28;20196;-85
2022/07/29 07:21:35;;;;;;;0.80;0.80;;;;;;;25.17;46.65;93959.56;5068952;28;20227;-86
2022/07/29 07:24:19;;;;;;;4.15;0.90;;;;;;;24.87;46.41;93951.09;5064973;28;20324;-84
2022/07/29 07:27:03;;;;;;;3.53;1.10;;;;;;;24.84;48.34;93968.97;5065795;28;21402;-89
2022/07/29 07:29:47;;;;;;;1.92;0.88;;;;;;;25.09;48.14;93964.44;5055822;28;20292;-87
2022/07/29 07:32:34;;;;;;;0.95;0.88;;;;;;;25.01;48.08;93970.75;5068093;28;20227;-90
2022/07/29 07:35:19;;;;;;;1.00;1.00;;;;;;;23.91;49.90;93972.78;5065168;28;20325;-89
2022/07/29 07:38:05;;;;;;;2.10;1.20;;;;;;;24.74;49.79;93965.94;5078384;28;20677;-85
2022/07/29 07:40:49;;;;;;;1.13;1.00;;;;;;;24.94;46.38;93966.31;5080814;28;20223;-85
2022/07/29 07:43:33;;;;;;;1.17;0.77;;;;;;;25.71;44.27;93967.63;5068006;28;20250;-89
2022/07/29 07:46:17;;;;;;;2.45;0.93;;;;;;;25.76;43.62;93969.84;5063146;28;20242;-85
2022/07/29 07:49:01;;;;;;;1.30;1.00;;;;;;;25.47;44.68;93972.97;5085683;28;20343;-90
2022/07/29 07:51:45;;;;;;;2.40;1.17;;;;;;;25.10;46.02;93972.34;5075143;28;20426;-85
2022/07/29 07:54:30;;;;;;;1.23;0.90;;;;;;;25.60;44.55;93983.25;5077351;28;20220;-87
2022/07/29 07:57:15;;;;;;;1.50;1.00;;;;;;;25.91;44.01;93965.06;5080157;28;20281;-85
2022/07/29 07:59:59;;;;;;;1.75;0.95;;;;;;;26.07;42.29;93956.66;5066748;28;20276;-85
2022/07/29 08:02:44;;;;;;;1.35;1.08;;;;;;;26.53;41.17;93970.94;5071584;28;20228;-85
2022/07/29 08:05:29;;;;;;;1.33;0.93;;;;;;;26.88;41.47;93963.44;5063618;28;20213;-85
2022/07/29 08:08:13;;;;;;;2.30;1.05;;;;;;;27.77;40.39;93964.25;5081061;28;20215;-83
2022/07/29 08:10:58;;;;;;;1.63;1.30;;;;;;;26.51;43.03;93970.91;5079000;28;20651;-92
2022/07/29 08:13:43;;;;;;;1.90;1.33;;;;;;;26.08;44.01;93963.84;5085905;28;20211;-85
2022/07/29 08:16:28;;;;;;;3.33;1.13;;;;;;;25.94;45.30;93972.28;5084994;28;20197;-86
2022/07/29 08:19:12;;;;;;;2.35;1.20;;;;;;;25.58;46.61;93977.47;5064574;28;20199;-86
2022/07/29 08:21:57;;;;;;;1.45;1.20;;;;;;;25.35;46.27;93964.88;5058434;28;20242;-87
2022/07/29 08:24:44;;;;;;;1.35;1.25;;;;;;;25.81;46.20;93970.63;5058296;28;20199;-89
2022/07/29 08:27:30;;;;;;;1.98;1.10;;;;;;;24.72;47.53;93968.75;5065770;28;20200;-87
2022/07/29 08:30:14;;;;;;;1.13;0.82;;;;;;;25.11;47.35;93968.06;5056202;28;20258;-85
2022/07/29 08:32:59;;;;;;;1.38;1.10;;;;;;;25.23;47.33;93979.75;5079983;28;20224;-86
2022/07/29 08:35:44;;;;;;;1.77;1.10;;;;;;;25.79;45.64;93982.09;5088183;28;20342;-88
2022/07/29 08:38:28;;;;;;;1.98;1.00;;;;;;;26.26;45.63;93982.78;5068471;28;20196;-87
2022/07/29 08:41:13;;;;;;;1.30;1.15;;;;;;;26.43;45.70;93982.28;5065092;28;20271;-87
2022/07/29 08:43:58;;;;;;;1.40;1.30;;;;;;;26.27;45.82;93995.72;5060492;28;20258;-91
2022/07/29 08:46:43;;;;;;;1.70;1.30;;;;;;;26.03;47.46;93996.81;5063782;28;20310;-88
2022/07/29 08:49:27;;;;;;;2.60;1.10;;;;;;;26.62;45.66;94000.47;5073157;28;20350;-85
2022/07/29 08:52:11;;;;;;;2.38;1.27;;;;;;;26.27;46.61;93992.84;5071099;28;20244;-88
2022/07/29 08:54:56;;;;;;;1.30;1.20;;;;;;;25.94;49.20;93992.38;5076571;28;20722;-92
2022/07/29 08:57:41;;;;;;;3.42;1.42;;;;;;;25.78;48.30;93992.13;5068508;28;20193;-87
2022/07/29 09:00:26;;;;;;;1.83;1.30;;;;;;;25.09;49.55;93999.56;5065021;28;20264;-87
2022/07/29 09:03:15;;;;;;;2.90;1.25;;;;;;;25.08;48.96;93992.38;5077301;28;20219;-92
2022/07/29 09:06:01;;;;;;;2.10;1.38;;;;;;;24.89;51.29;93985.59;5092514;28;20324;-90
2022/07/29 09:08:45;;;;;;;1.75;1.42;;;;;;;24.89;50.35;93993.44;5075052;28;20233;-84
2022/07/29 09:11:35;;;;;;;3.35;1.33;;;;;;;25.03;50.26;93990.84;5076330;28;20203;-85
2022/07/29 09:14:19;;;;;;;1.30;1.20;;;;;;;24.88;49.71;94003.44;5067172;28;20231;-84
2022/07/29 09:17:04;;;;;;;2.70;1.30;;;;;;;25.28;50.51;94003.47;5094741;28;20200;-89
2022/07/29 09:19:48;;;;;;;1.77;1.30;;;;;;;24.98;50.05;94006.53;5072392;28;20664;-90
2022/07/29 09:22:33;;;;;;;1.58;1.40;;;;;;;24.81;50.17;94007.63;5067984;28;20243;-89
2022/07/29 09:25:37;;;;;;;1.58;1.40;;;;;;;25.24;49.33;93992.66;5067545;28;20285;-87
2022/07/29 09:28:23;;;;;;;2.97;1.25;;;;;;;25.32;49.16;93989.94;5084184;28;20314;-86
2022/07/29 09:31:08;;;;;;;1.50;1.40;;;;;;;24.85;51.54;93988.34;5082508;28;20184;-84
2022/07/29 09:33:57;;;;;;;2.15;1.77;;;;;;;24.96;49.13;93992.16;5080923;28;20209;-92
2022/07/29 09:37:06;;;;;;;3.95;1.33;;;;;;;24.85;51.24;93999.09;5084742;28;20601;-87
2022/07/29 09:39:51;;;;;;;2.08;1.60;;;;;;;24.77;50.89;93988.19;5069668;28;20204;-85
2022/07/29 09:42:35;;;;;;;1.92;1.52;;;;;;;24.52;52.17;93978.41;5077218;28;20199;-85
2022/07/29 09:45:31;;;;;;;5.07;1.73;;;;;;;24.94;52.16;93977.78;5087014;28;20637;-94
2022/07/29 09:48:25;;;;;;;1.60;1.50;;;;;;;24.26;56.06;93983.59;5066780;28;20228;-94
2022/07/29 09:51:20;;;;;;;2.42;1.83;;;;;;;24.06;55.66;93978.16;5058715;28;20220;-87
2022/07/29 09:54:25;;;;;;;4.85;1.80;;;;;;;24.19;54.83;93987.75;5077716;28;20195;-88
2022/07/29 09:57:22;;;;;;;2.78;1.60;;;;;;;24.65;52.80;93987.97;5058156;28;20208;-87
2022/07/29 10:00:18;;;;;;;2.83;2.35;;;;;;;25.13;50.89;93988.16;5064369;28;20314;-85
2022/07/29 10:03:03;;;;;;;3.25;1.80;;;;;;;24.43;54.72;93984.66;5073649;28;20228;-88
2022/07/29 10:06:08;;;;;;;2.25;1.67;;;;;;;24.19;56.09;93979.16;5072570;28;20258;-86
2022/07/29 10:08:52;;;;;;;1.75;1.65;;;;;;;25.71;50.06;93979.09;5073463;28;20316;-93
2022/07/29 10:11:37;;;;;;;1.92;1.83;;;;;;;26.12;47.53;93994.78;5064166;28;20258;-86
2022/07/29 10:14:21;;;;;;;2.33;1.67;;;;;;;24.31;51.90;93990.13;5068713;28;20200;-84
2022/07/29 10:17:11;;;;;;;3.00;1.83;;;;;;;25.84;49.63;93995.09;5075778;28;20330;-85
2022/07/29 10:19:56;;;;;;;2.10;1.90;;;;;;;25.64;50.84;93984.03;5092750;28;20425;-88
2022/07/29 10:22:41;;;;;;;1.92;1.67;;;;;;;26.08;49.92;93980.38;5067206;28;20706;-93
2022/07/29 10:25:26;;;;;;;3.47;2.50;;;;;;;25.31;49.88;93979.88;5060701;28;20200;-90
2022/07/29 10:28:10;;;;;;;5.65;3.22;;;;;;;25.69;50.02;93979.06;5092727;28;20830;-86
2022/07/29 10:31:01;;;;;;;4.30;2.08;;;;;;;27.08;48.48;93979.47;5077294;28;20284;-86
2022/07/29 10:34:14;;;;;;;2.08;1.73;;;;;;;26.80;44.54;93985.59;5036527;28;20375;-87
2022/07/29 10:37:28;;;;;;;2.97;1.88;;;;;;;26.76;45.64;93997.78;5055527;28;20280;-94
2022/07/29 10:43:35;;;;;;;2.10;1.80;;;;;;;25.49;47.70;93981.59;5072886;28;20216;-87
2022/07/29 10:46:21;;;;;;;4.90;2.40;;;;;;;25.75;48.16;93985.63;5063051;28;20238;-86
2022/07/29 10:49:11;;;;;;;2.20;2.00;;;;;;;26.06;48.50;93981.06;5060761;28;20266;-90
2022/07/29 10:52:16;;;;;;;2.75;1.83;;;;;;;25.94;49.45;93978.00;5065252;28;20273;-91
2022/07/29 10:55:02;;;;;;;2.15;1.80;;;;;;;26.57;46.72;93987.50;5081258;28;20204;-86
2022/07/29 10:58:20;;;;;;;2.78;1.92;;;;;;;26.52;47.00;93986.00;5058412;28;20223;-89
2022/07/29 11:01:30;;;;;;;2.40;2.20;;;;;;;26.32;48.23;93980.00;5057519;28;20251;-91
2022/07/29 11:04:16;;;;;;;6.15;2.00;;;;;;;27.09;45.95;93987.41;5091542;28;20365;-86
2022/07/29 11:07:00;;;;;;;3.53;1.85;;;;;;;26.81;48.94;93984.91;5070329;28;20209;-85
2022/07/29 11:10:13;;;;;;;2.72;2.17;;;;;;;27.23;47.55;93984.63;5083422;28;20228;-84
2022/07/29 11:12:58;;;;;;;3.67;2.00;;;;;;;27.45;46.94;93980.53;5081815;28;20251;-86
2022/07/29 11:15:58;;;;;;;3.08;2.15;;;;;;;27.08;47.77;93979.47;5060401;28;20250;-85
2022/07/29 11:19:10;;;;;;;5.72;2.20;;;;;;;27.37;46.83;93972.53;5083063;28;20185;-85
2022/07/29 11:21:59;;;;;;;3.38;2.03;;;;;;;27.95;45.83;93980.22;5065333;28;20196;-94
2022/07/29 11:24:43;;;;;;;2.10;1.85;;;;;;;26.91;45.76;93972.81;5059006;28;20232;-86
2022/07/29 11:27:30;;;;;;;3.58;2.10;;;;;;;27.19;45.67;93972.38;5071373;28;20245;-85
2022/07/29 11:30:15;;;;;;;2.00;1.70;;;;;;;27.11;45.33;93967.25;5093604;28;20235;-85
2022/07/29 11:32:59;;;;;;;2.63;2.05;;;;;;;27.57;43.33;93964.13;5067316;28;20246;-85
2022/07/29 11:36:11;;;;;;;2.22;1.73;;;;;;;26.77;45.53;93969.75;5083582;28;20215;-87
2022/07/29 11:39:27;;;;;;;2.00;1.75;;;;;;;26.02;45.37;93958.03;5087960;28;20267;-93
2022/07/29 11:42:21;;;;;;;2.72;1.77;;;;;;;26.56;47.06;93960.16;5064409;28;20212;-89
2022/07/29 11:45:17;;;;;;;2.67;1.65;;;;;;;26.90;45.59;93960.59;5070625;28;20352;-88
2022/07/29 11:48:04;;;;;;;2.75;2.13;;;;;;;27.06;45.51;93959.28;5076054;28;20219;-87
2022/07/29 11:50:48;;;;;;;2.03;1.83;;;;;;;27.50;43.84;93945.31;5055856;28;20258;-84
2022/07/29 11:53:35;;;;;;;4.88;1.85;;;;;;;27.19;44.09;93938.56;5090270;28;20222;-92
2022/07/29 11:56:23;;;;;;;2.80;1.70;;;;;;;27.67;42.57;93938.28;5090133;28;20193;-87
2022/07/29 11:59:09;;;;;;;5.90;2.00;;;;;;;27.50;42.71;93942.44;5087393;28;20195;-88
2022/07/29 12:01:57;;;;;;;2.53;1.63;;;;;;;28.66;40.67;93940.97;5066656;28;20205;-91
2022/07/29 12:05:00;;;;;;;4.28;1.77;;;;;;;28.26;40.81;93935.78;5075028;28;20204;-90
2022/07/29 12:07:45;;;;;;;2.63;2.05;;;;;;;28.05;42.41;93932.03;5061268;28;20208;-91
2022/07/29 12:10:32;;;;;;;3.38;1.80;;;;;;;27.73;42.25;93935.44;5061105;28;20583;-88
2022/07/29 12:13:19;;;;;;;4.40;1.80;;;;;;;28.04;42.46;93939.22;5061354;28;20227;-85
2022/07/29 12:16:03;;;;;;;3.17;1.60;;;;;;;27.68;42.02;93933.22;5088735;28;20242;-88
2022/07/29 12:19:00;;;;;;;3.88;1.70;;;;;;;26.51;45.24;93929.94;5072244;28;20208;-92
2022/07/29 12:21:52;;;;;;;2.05;1.75;;;;;;;26.65;45.62;93930.09;5085016;28;20211;-84
2022/07/29 12:24:44;;;;;;;2.88;1.80;;;;;;;26.47;44.89;93932.78;5080247;28;20199;-84
2022/07/29 12:27:28;;;;;;;3.88;1.90;;;;;;;25.95;46.67;93924.91;5061845;28;20192;-87
2022/07/29 12:30:15;;;;;;;4.43;1.77;;;;;;;25.60;47.78;93923.69;5063995;28;20570;-88
2022/07/29 12:33:14;;;;;;;4.82;1.88;;;;;;;25.61;47.50;93930.16;5080368;28;20219;-91
2022/07/29 12:36:03;;;;;;;2.38;1.83;;;;;;;25.65;48.45;93936.69;5056997;28;20273;-85
2022/07/29 12:38:48;;;;;;;2.35;1.83;;;;;;;25.55;49.39;93922.16;5064642;28;20200;-93
2022/07/29 12:41:32;;;;;;;2.60;1.85;;;;;;;25.40;48.07;93929.09;5078026;28;20696;-90
2022/07/29 12:44:16;;;;;;;1.92;1.70;;;;;;;25.36;48.19;93934.78;5085530;28;20291;-89
2022/07/29 12:47:04;;;;;;;5.07;2.15;;;;;;;25.68;47.38;93931.69;5074665;28;20330;-88
2022/07/29 12:49:49;;;;;;;2.28;1.40;;;;;;;25.81;46.80;93935.47;5093036;28;20231;-83
2022/07/29 12:52:35;;;;;;;3.17;1.50;;;;;;;25.43;46.78;93929.88;5072196;28;20196;-85
2022/07/29 12:55:48;;;;;;;1.40;1.30;;;;;;;24.99;47.09;93933.44;5082484;28;20223;-88
2022/07/29 12:58:38;;;;;;;2.05;1.40;;;;;;;25.06;47.44;93926.38;5071235;28;20421;-85
2022/07/29 13:01:22;;;;;;;3.15;1.27;;;;;;;24.92;48.44;93937.63;5077959;28;20568;-87
2022/07/29 13:04:06;;;;;;;2.75;1.30;;;;;;;24.88;50.30;93928.91;5073005;28;20215;-86
2022/07/29 13:07:02;;;;;;;1.48;1.38;;;;;;;24.73;50.45;93930.06;5071254;28;20231;-85
2022/07/29 13:09:47;;;;;;;1.50;1.40;;;;;;;24.16;51.12;93928.94;5064469;28;20570;-89
2022/07/29 13:12:31;;;;;;;2.35;1.45;;;;;;;24.22;53.10;93937.69;5076174;28;20696;-92
2022/07/29 13:15:16;;;;;;;2.20;1.50;;;;;;;24.23;52.67;93936.28;5058116;28;20200;-85
2022/07/29 13:18:00;;;;;;;3.00;1.50;;;;;;;24.12;52.28;93940.31;5066857;28;20216;-86